sensor_id;sensor_type;location;lat;lon;timestamp;temperature;humidity
3756;DHT22;1893;52.526;13.360;2023-02-13T00:00:29;7.50;99.90
3756;DHT22;1893;52.526;13.360;2023-02-13T00:02:55;7.50;99.90
3756;DHT22;1893;52.526;13.360;2023-02-13T00:05:20;7.50;99.90
3756;DHT22;1893;52.526;13.360;2023-02-13T00:07:46;7.50;99.90
3756;DHT22;1893;52.526;13.360;2023-02-13T00:10:11;7.50;99.90
3756;DHT22;1893;52.526;13.360;2023-02-13T00:12:37;7.50;99.90
3756;DHT22;1893;52.526;13.360;2023-02-13T00:15:04;7.50;99.90
3756;DHT22;1893;52.526;13.360;2023-02-13T00:17:30;7.50;99.90
3756;DHT22;1893;52.526;13.360;2023-02-13T00:19:55;7.50;99.90
3756;DHT22;1893;52.526;13.360;2023-02-13T00:22:21;7.50;99.90
3756;DHT22;1893;52.526;13.360;2023-02-13T00:24:47;7.50;99.90
3756;DHT22;1893;52.526;13.360;2023-02-13T00:27:12;7.40;99.90
3756;DHT22;1893;52.526;13.360;2023-02-13T00:29:38;7.40;99.90
3756;DHT22;1893;52.526;13.360;2023-02-13T00:32:04;7.40;99.90
3756;DHT22;1893;52.526;13.360;2023-02-13T00:34:29;7.40;99.90
3756;DHT22;1893;52.526;13.360;2023-02-13T00:36:55;7.50;99.90
3756;DHT22;1893;52.526;13.360;2023-02-13T00:39:20;7.40;99.90
3756;DHT22;1893;52.526;13.360;2023-02-13T00:41:46;7.30;99.90
3756;DHT22;1893;52.526;13.360;2023-02-13T00:44:12;7.30;99.90
3756;DHT22;1893;52.526;13.360;2023-02-13T00:46:37;7.30;99.90
3756;DHT22;1893;52.526;13.360;2023-02-13T00:49:04;7.30;99.90
3756;DHT22;1893;52.526;13.360;2023-02-13T00:51:30;7.30;99.90
3756;DHT22;1893;52.526;13.360;2023-02-13T00:53:55;7.30;99.90
3756;DHT22;1893;52.526;13.360;2023-02-13T00:56:21;7.30;99.90
3756;DHT22;1893;52.526;13.360;2023-02-13T00:58:46;7.30;99.90
3756;DHT22;1893;52.526;13.360;2023-02-13T01:01:12;7.30;99.90
3756;DHT22;1893;52.526;13.360;2023-02-13T01:03:38;7.30;99.90
3756;DHT22;1893;52.526;13.360;2023-02-13T01:06:04;7.30;99.90
3756;DHT22;1893;52.526;13.360;2023-02-13T01:08:29;7.30;99.90
3756;DHT22;1893;52.526;13.360;2023-02-13T01:10:55;7.30;99.90
3756;DHT22;1893;52.526;13.360;2023-02-13T01:13:21;7.30;99.90
3756;DHT22;1893;52.526;13.360;2023-02-13T01:15:47;7.30;99.90
3756;DHT22;1893;52.526;13.360;2023-02-13T01:18:14;7.30;99.90
3756;DHT22;1893;52.526;13.360;2023-02-13T01:20:41;7.30;99.90
3756;DHT22;1893;52.526;13.360;2023-02-13T01:23:08;7.30;99.90
3756;DHT22;1893;52.526;13.360;2023-02-13T01:25:34;7.30;99.90
3756;DHT22;1893;52.526;13.360;2023-02-13T01:28:00;7.30;99.90
3756;DHT22;1893;52.526;13.360;2023-02-13T01:30:26;7.30;99.90
3756;DHT22;1893;52.526;13.360;2023-02-13T01:33:03;7.20;99.90
3756;DHT22;1893;52.526;13.360;2023-02-13T01:35:29;7.20;99.90
3756;DHT22;1893;52.526;13.360;2023-02-13T01:37:54;7.20;99.90
3756;DHT22;1893;52.526;13.360;2023-02-13T01:40:20;7.20;99.90
3756;DHT22;1893;52.526;13.360;2023-02-13T01:42:46;7.20;99.90
3756;DHT22;1893;52.526;13.360;2023-02-13T01:45:30;7.10;99.90
3756;DHT22;1893;52.526;13.360;2023-02-13T01:50:34;7.10;99.90
3756;DHT22;1893;52.526;13.360;2023-02-13T01:53:09;7.10;99.90
3756;DHT22;1893;52.526;13.360;2023-02-13T01:56:27;7.10;99.90
3756;DHT22;1893;52.526;13.360;2023-02-13T01:58:31;7.10;99.90
3756;DHT22;1893;52.526;13.360;2023-02-13T02:00:58;7.10;99.90
3756;DHT22;1893;52.526;13.360;2023-02-13T02:03:48;7.10;99.90
3756;DHT22;1893;52.526;13.360;2023-02-13T02:06:24;7.00;99.90
3756;DHT22;1893;52.526;13.360;2023-02-13T02:09:15;7.00;99.90
3756;DHT22;1893;52.526;13.360;2023-02-13T02:15:05;6.90;99.90
3756;DHT22;1893;52.526;13.360;2023-02-13T02:17:31;7.00;99.90
3756;DHT22;1893;52.526;13.360;2023-02-13T02:23:16;7.00;99.90
3756;DHT22;1893;52.526;13.360;2023-02-13T02:43:05;6.90;99.90
3756;DHT22;1893;52.526;13.360;2023-02-13T02:45:45;6.90;99.90
3756;DHT22;1893;52.526;13.360;2023-02-13T02:48:38;7.10;99.90
3756;DHT22;1893;52.526;13.360;2023-02-13T02:57:14;6.90;99.90
3756;DHT22;1893;52.526;13.360;2023-02-13T02:59:42;6.90;99.90
3756;DHT22;1893;52.526;13.360;2023-02-13T03:02:29;6.90;99.90
3756;DHT22;1893;52.526;13.360;2023-02-13T03:05:21;6.90;99.90
3756;DHT22;1893;52.526;13.360;2023-02-13T03:08:07;6.90;99.90
3756;DHT22;1893;52.526;13.360;2023-02-13T03:10:34;6.90;99.90
3756;DHT22;1893;52.526;13.360;2023-02-13T03:13:52;6.90;99.90
3756;DHT22;1893;52.526;13.360;2023-02-13T03:16:20;6.90;99.90
3756;DHT22;1893;52.526;13.360;2023-02-13T03:19:12;6.80;99.90
3756;DHT22;1893;52.526;13.360;2023-02-13T03:28:05;6.80;99.90
3756;DHT22;1893;52.526;13.360;2023-02-13T03:36:33;6.90;99.90
3756;DHT22;1893;52.526;13.360;2023-02-13T03:39:46;6.70;99.90
3756;DHT22;1893;52.526;13.360;2023-02-13T03:42:42;6.70;99.90
3756;DHT22;1893;52.526;13.360;2023-02-13T03:45:13;6.70;99.90
3756;DHT22;1893;52.526;13.360;2023-02-13T03:48:00;6.70;99.90
3756;DHT22;1893;52.526;13.360;2023-02-13T03:50:37;6.80;99.90
3756;DHT22;1893;52.526;13.360;2023-02-13T03:53:12;6.70;99.90
3756;DHT22;1893;52.526;13.360;2023-02-13T03:55:44;6.70;99.90
3756;DHT22;1893;52.526;13.360;2023-02-13T03:58:33;6.70;99.90
3756;DHT22;1893;52.526;13.360;2023-02-13T04:01:29;6.70;99.90
3756;DHT22;1893;52.526;13.360;2023-02-13T04:06:31;6.70;99.90
3756;DHT22;1893;52.526;13.360;2023-02-13T04:08:57;6.70;99.90
3756;DHT22;1893;52.526;13.360;2023-02-13T04:11:40;6.80;99.90
3756;DHT22;1893;52.526;13.360;2023-02-13T04:17:13;6.80;99.90
3756;DHT22;1893;52.526;13.360;2023-02-13T04:19:40;6.80;99.90
3756;DHT22;1893;52.526;13.360;2023-02-13T04:22:06;6.80;99.90
3756;DHT22;1893;52.526;13.360;2023-02-13T04:24:32;6.80;99.90
3756;DHT22;1893;52.526;13.360;2023-02-13T04:26:57;6.80;99.90
3756;DHT22;1893;52.526;13.360;2023-02-13T04:29:24;6.90;99.90
3756;DHT22;1893;52.526;13.360;2023-02-13T04:31:50;6.90;99.90
3756;DHT22;1893;52.526;13.360;2023-02-13T04:34:16;6.90;99.90
3756;DHT22;1893;52.526;13.360;2023-02-13T04:36:42;6.90;99.90
3756;DHT22;1893;52.526;13.360;2023-02-13T04:39:09;6.90;99.90
3756;DHT22;1893;52.526;13.360;2023-02-13T04:41:35;6.90;99.90
3756;DHT22;1893;52.526;13.360;2023-02-13T04:44:00;6.90;99.90
3756;DHT22;1893;52.526;13.360;2023-02-13T04:46:26;6.90;99.90
3756;DHT22;1893;52.526;13.360;2023-02-13T04:48:51;7.00;99.90
3756;DHT22;1893;52.526;13.360;2023-02-13T04:51:17;6.90;99.90
3756;DHT22;1893;52.526;13.360;2023-02-13T04:53:42;6.90;99.90
3756;DHT22;1893;52.526;13.360;2023-02-13T04:56:08;6.90;99.90
3756;DHT22;1893;52.526;13.360;2023-02-13T04:58:34;6.90;99.90
3756;DHT22;1893;52.526;13.360;2023-02-13T05:00:59;6.90;99.90
3756;DHT22;1893;52.526;13.360;2023-02-13T05:03:25;6.90;99.90
3756;DHT22;1893;52.526;13.360;2023-02-13T05:05:50;6.90;99.90
3756;DHT22;1893;52.526;13.360;2023-02-13T05:08:16;6.90;99.90
3756;DHT22;1893;52.526;13.360;2023-02-13T05:10:42;6.90;99.90
3756;DHT22;1893;52.526;13.360;2023-02-13T05:13:07;6.90;99.90
3756;DHT22;1893;52.526;13.360;2023-02-13T05:15:33;6.90;99.90
3756;DHT22;1893;52.526;13.360;2023-02-13T05:17:59;6.90;99.90
3756;DHT22;1893;52.526;13.360;2023-02-13T05:20:24;6.90;99.90
3756;DHT22;1893;52.526;13.360;2023-02-13T05:22:52;6.90;99.90
3756;DHT22;1893;52.526;13.360;2023-02-13T05:25:39;6.90;99.90
3756;DHT22;1893;52.526;13.360;2023-02-13T05:28:05;6.90;99.90
3756;DHT22;1893;52.526;13.360;2023-02-13T05:30:51;6.90;99.90
3756;DHT22;1893;52.526;13.360;2023-02-13T05:33:16;6.90;99.90
3756;DHT22;1893;52.526;13.360;2023-02-13T05:35:42;6.90;99.90
3756;DHT22;1893;52.526;13.360;2023-02-13T05:38:07;6.90;99.90
3756;DHT22;1893;52.526;13.360;2023-02-13T05:40:33;6.90;99.90
3756;DHT22;1893;52.526;13.360;2023-02-13T05:42:59;6.90;99.90
3756;DHT22;1893;52.526;13.360;2023-02-13T05:45:24;6.90;99.90
3756;DHT22;1893;52.526;13.360;2023-02-13T05:47:50;7.00;99.90
3756;DHT22;1893;52.526;13.360;2023-02-13T05:50:15;6.90;99.90
3756;DHT22;1893;52.526;13.360;2023-02-13T05:52:41;6.90;99.90
3756;DHT22;1893;52.526;13.360;2023-02-13T05:55:17;6.90;99.90
3756;DHT22;1893;52.526;13.360;2023-02-13T05:57:43;6.90;99.90
3756;DHT22;1893;52.526;13.360;2023-02-13T06:00:09;6.90;99.90
3756;DHT22;1893;52.526;13.360;2023-02-13T06:02:35;6.90;99.90
3756;DHT22;1893;52.526;13.360;2023-02-13T06:05:00;6.90;99.90
3756;DHT22;1893;52.526;13.360;2023-02-13T06:07:26;7.10;99.90
3756;DHT22;1893;52.526;13.360;2023-02-13T06:09:52;6.90;99.90
3756;DHT22;1893;52.526;13.360;2023-02-13T06:12:18;6.90;99.90
3756;DHT22;1893;52.526;13.360;2023-02-13T06:14:43;7.00;99.90
3756;DHT22;1893;52.526;13.360;2023-02-13T06:17:09;7.00;99.90
3756;DHT22;1893;52.526;13.360;2023-02-13T06:19:34;7.00;99.90
3756;DHT22;1893;52.526;13.360;2023-02-13T06:22:00;7.00;99.90
3756;DHT22;1893;52.526;13.360;2023-02-13T06:24:25;7.00;99.90
3756;DHT22;1893;52.526;13.360;2023-02-13T06:26:51;7.10;99.90
3756;DHT22;1893;52.526;13.360;2023-02-13T06:29:17;7.00;99.90
3756;DHT22;1893;52.526;13.360;2023-02-13T06:31:42;7.00;99.90
3756;DHT22;1893;52.526;13.360;2023-02-13T06:34:08;7.10;99.90
3756;DHT22;1893;52.526;13.360;2023-02-13T06:36:33;7.10;99.90
3756;DHT22;1893;52.526;13.360;2023-02-13T06:38:59;7.10;99.90
3756;DHT22;1893;52.526;13.360;2023-02-13T06:41:25;7.20;99.90
3756;DHT22;1893;52.526;13.360;2023-02-13T06:43:50;7.10;99.90
3756;DHT22;1893;52.526;13.360;2023-02-13T06:46:16;7.10;99.90
3756;DHT22;1893;52.526;13.360;2023-02-13T06:48:41;7.10;99.90
3756;DHT22;1893;52.526;13.360;2023-02-13T06:51:07;7.10;99.90
3756;DHT22;1893;52.526;13.360;2023-02-13T06:53:32;7.10;99.90
3756;DHT22;1893;52.526;13.360;2023-02-13T06:55:58;7.00;99.90
3756;DHT22;1893;52.526;13.360;2023-02-13T06:58:27;7.10;99.90
3756;DHT22;1893;52.526;13.360;2023-02-13T07:00:53;7.10;99.90
3756;DHT22;1893;52.526;13.360;2023-02-13T07:03:19;7.10;99.90
3756;DHT22;1893;52.526;13.360;2023-02-13T07:05:44;7.10;99.90
3756;DHT22;1893;52.526;13.360;2023-02-13T07:08:11;7.10;99.90
3756;DHT22;1893;52.526;13.360;2023-02-13T07:10:38;7.10;99.90
3756;DHT22;1893;52.526;13.360;2023-02-13T07:13:04;7.10;99.90
3756;DHT22;1893;52.526;13.360;2023-02-13T07:15:31;7.00;99.90
3756;DHT22;1893;52.526;13.360;2023-02-13T07:17:57;7.10;99.90
3756;DHT22;1893;52.526;13.360;2023-02-13T07:20:24;7.10;99.90
3756;DHT22;1893;52.526;13.360;2023-02-13T07:22:50;7.10;99.90
3756;DHT22;1893;52.526;13.360;2023-02-13T07:25:16;7.10;99.90
3756;DHT22;1893;52.526;13.360;2023-02-13T07:27:42;7.20;99.90
3756;DHT22;1893;52.526;13.360;2023-02-13T07:30:08;7.20;99.90
3756;DHT22;1893;52.526;13.360;2023-02-13T07:32:34;7.20;99.90
3756;DHT22;1893;52.526;13.360;2023-02-13T07:34:59;7.20;99.90
3756;DHT22;1893;52.526;13.360;2023-02-13T07:37:27;7.20;99.90
3756;DHT22;1893;52.526;13.360;2023-02-13T07:39:53;7.20;99.90
3756;DHT22;1893;52.526;13.360;2023-02-13T07:42:18;7.20;99.90
3756;DHT22;1893;52.526;13.360;2023-02-13T07:44:44;7.20;99.90
3756;DHT22;1893;52.526;13.360;2023-02-13T07:47:09;7.20;99.90
3756;DHT22;1893;52.526;13.360;2023-02-13T07:49:35;7.30;99.90
3756;DHT22;1893;52.526;13.360;2023-02-13T07:52:02;7.30;99.90
3756;DHT22;1893;52.526;13.360;2023-02-13T07:54:28;7.30;99.90
3756;DHT22;1893;52.526;13.360;2023-02-13T07:56:53;7.30;99.90
3756;DHT22;1893;52.526;13.360;2023-02-13T07:59:19;7.20;99.90
3756;DHT22;1893;52.526;13.360;2023-02-13T08:01:44;7.20;99.90
3756;DHT22;1893;52.526;13.360;2023-02-13T08:04:10;7.20;99.90
3756;DHT22;1893;52.526;13.360;2023-02-13T08:06:41;7.20;99.90
3756;DHT22;1893;52.526;13.360;2023-02-13T08:09:07;7.30;99.90
3756;DHT22;1893;52.526;13.360;2023-02-13T08:11:52;7.20;99.90
3756;DHT22;1893;52.526;13.360;2023-02-13T08:14:25;7.30;99.90
3756;DHT22;1893;52.526;13.360;2023-02-13T08:16:52;7.20;99.90
3756;DHT22;1893;52.526;13.360;2023-02-13T08:19:18;7.20;99.90
3756;DHT22;1893;52.526;13.360;2023-02-13T08:21:44;7.20;99.90
3756;DHT22;1893;52.526;13.360;2023-02-13T08:24:10;7.20;99.90
3756;DHT22;1893;52.526;13.360;2023-02-13T08:26:35;7.20;99.90
3756;DHT22;1893;52.526;13.360;2023-02-13T08:29:01;7.30;99.90
3756;DHT22;1893;52.526;13.360;2023-02-13T08:31:26;7.30;99.90
3756;DHT22;1893;52.526;13.360;2023-02-13T08:33:52;7.40;99.90
3756;DHT22;1893;52.526;13.360;2023-02-13T08:36:17;7.30;99.90
3756;DHT22;1893;52.526;13.360;2023-02-13T08:38:46;7.30;99.90
3756;DHT22;1893;52.526;13.360;2023-02-13T08:41:12;7.40;99.90
3756;DHT22;1893;52.526;13.360;2023-02-13T08:43:37;7.30;99.90
3756;DHT22;1893;52.526;13.360;2023-02-13T08:46:03;7.40;99.90
3756;DHT22;1893;52.526;13.360;2023-02-13T08:48:29;7.30;99.90
3756;DHT22;1893;52.526;13.360;2023-02-13T08:50:55;7.40;99.90
3756;DHT22;1893;52.526;13.360;2023-02-13T08:53:20;7.50;99.90
3756;DHT22;1893;52.526;13.360;2023-02-13T08:55:53;7.40;99.90
3756;DHT22;1893;52.526;13.360;2023-02-13T08:58:19;7.40;99.90
3756;DHT22;1893;52.526;13.360;2023-02-13T09:00:44;7.40;99.90
3756;DHT22;1893;52.526;13.360;2023-02-13T09:03:10;7.40;99.90
3756;DHT22;1893;52.526;13.360;2023-02-13T09:05:36;7.50;99.90
3756;DHT22;1893;52.526;13.360;2023-02-13T09:08:02;7.40;99.90
3756;DHT22;1893;52.526;13.360;2023-02-13T09:10:28;7.40;99.90
3756;DHT22;1893;52.526;13.360;2023-02-13T09:12:54;7.50;99.90
3756;DHT22;1893;52.526;13.360;2023-02-13T09:15:20;7.40;99.90
3756;DHT22;1893;52.526;13.360;2023-02-13T09:17:46;7.40;99.90
3756;DHT22;1893;52.526;13.360;2023-02-13T09:20:12;7.40;99.90
3756;DHT22;1893;52.526;13.360;2023-02-13T09:22:40;7.40;99.90
3756;DHT22;1893;52.526;13.360;2023-02-13T09:25:07;7.50;99.90
3756;DHT22;1893;52.526;13.360;2023-02-13T09:27:33;7.30;99.90
3756;DHT22;1893;52.526;13.360;2023-02-13T09:30:00;7.20;99.90
3756;DHT22;1893;52.526;13.360;2023-02-13T09:32:26;7.20;99.90
3756;DHT22;1893;52.526;13.360;2023-02-13T09:34:52;7.20;99.90
3756;DHT22;1893;52.526;13.360;2023-02-13T09:37:17;7.30;99.90
3756;DHT22;1893;52.526;13.360;2023-02-13T09:39:43;7.30;99.90
3756;DHT22;1893;52.526;13.360;2023-02-13T09:42:20;7.20;99.90
3756;DHT22;1893;52.526;13.360;2023-02-13T09:44:57;7.20;99.90
3756;DHT22;1893;52.526;13.360;2023-02-13T09:47:35;7.30;99.90
3756;DHT22;1893;52.526;13.360;2023-02-13T09:50:25;7.20;99.90
3756;DHT22;1893;52.526;13.360;2023-02-13T09:52:53;7.10;99.90
3756;DHT22;1893;52.526;13.360;2023-02-13T09:55:28;7.20;99.90
3756;DHT22;1893;52.526;13.360;2023-02-13T10:00:31;7.20;99.90
3756;DHT22;1893;52.526;13.360;2023-02-13T10:05:45;7.10;99.90
3756;DHT22;1893;52.526;13.360;2023-02-13T10:16:37;7.30;99.90
3756;DHT22;1893;52.526;13.360;2023-02-13T10:21:53;7.30;99.90
3756;DHT22;1893;52.526;13.360;2023-02-13T10:24:45;7.40;99.90
3756;DHT22;1893;52.526;13.360;2023-02-13T10:27:21;7.50;99.90
3756;DHT22;1893;52.526;13.360;2023-02-13T10:30:05;7.50;99.90
3756;DHT22;1893;52.526;13.360;2023-02-13T10:35:36;7.30;99.90
3756;DHT22;1893;52.526;13.360;2023-02-13T10:38:12;7.20;99.90
3756;DHT22;1893;52.526;13.360;2023-02-13T10:41:31;7.40;99.90
3756;DHT22;1893;52.526;13.360;2023-02-13T10:43:39;7.30;99.90
3756;DHT22;1893;52.526;13.360;2023-02-13T10:51:44;7.40;99.90
3756;DHT22;1893;52.526;13.360;2023-02-13T10:54:32;7.40;99.90
3756;DHT22;1893;52.526;13.360;2023-02-13T10:57:21;7.40;99.90
3756;DHT22;1893;52.526;13.360;2023-02-13T11:02:30;7.40;99.90
3756;DHT22;1893;52.526;13.360;2023-02-13T11:05:24;7.40;99.90
3756;DHT22;1893;52.526;13.360;2023-02-13T11:07:50;7.60;99.90
3756;DHT22;1893;52.526;13.360;2023-02-13T11:10:19;7.80;99.90
3756;DHT22;1893;52.526;13.360;2023-02-13T11:12:46;7.80;99.90
3756;DHT22;1893;52.526;13.360;2023-02-13T11:17:55;7.70;99.90
3756;DHT22;1893;52.526;13.360;2023-02-13T11:20:27;7.50;99.90
3756;DHT22;1893;52.526;13.360;2023-02-13T11:22:54;7.50;99.90
3756;DHT22;1893;52.526;13.360;2023-02-13T11:25:25;7.60;99.90
3756;DHT22;1893;52.526;13.360;2023-02-13T11:28:07;7.70;99.90
3756;DHT22;1893;52.526;13.360;2023-02-13T11:30:36;7.60;99.90
3756;DHT22;1893;52.526;13.360;2023-02-13T11:33:08;7.60;99.90
3756;DHT22;1893;52.526;13.360;2023-02-13T11:35:46;7.70;99.90
3756;DHT22;1893;52.526;13.360;2023-02-13T11:40:42;7.50;99.90
3756;DHT22;1893;52.526;13.360;2023-02-13T11:43:30;7.70;99.90
3756;DHT22;1893;52.526;13.360;2023-02-13T11:46:07;7.70;99.90
3756;DHT22;1893;52.526;13.360;2023-02-13T11:48:35;7.60;99.90
3756;DHT22;1893;52.526;13.360;2023-02-13T11:51:01;7.50;99.90
3756;DHT22;1893;52.526;13.360;2023-02-13T11:53:37;7.50;99.90
3756;DHT22;1893;52.526;13.360;2023-02-13T11:58:32;7.50;99.90
3756;DHT22;1893;52.526;13.360;2023-02-13T12:01:27;7.70;99.90
3756;DHT22;1893;52.526;13.360;2023-02-13T12:04:17;7.70;99.90
3756;DHT22;1893;52.526;13.360;2023-02-13T12:07:21;7.80;99.90
3756;DHT22;1893;52.526;13.360;2023-02-13T12:09:56;7.70;99.90
3756;DHT22;1893;52.526;13.360;2023-02-13T12:12:39;7.80;99.90
3756;DHT22;1893;52.526;13.360;2023-02-13T12:15:38;7.90;99.90
3756;DHT22;1893;52.526;13.360;2023-02-13T12:18:24;7.90;99.90
3756;DHT22;1893;52.526;13.360;2023-02-13T12:21:35;8.00;99.90
3756;DHT22;1893;52.526;13.360;2023-02-13T12:26:29;8.00;99.90
3756;DHT22;1893;52.526;13.360;2023-02-13T12:39:40;8.00;99.90
3756;DHT22;1893;52.526;13.360;2023-02-13T12:42:32;7.90;99.90
3756;DHT22;1893;52.526;13.360;2023-02-13T13:07:49;8.00;99.90
3756;DHT22;1893;52.526;13.360;2023-02-13T13:19:30;7.90;99.90
3756;DHT22;1893;52.526;13.360;2023-02-13T13:22:14;7.90;99.90
3756;DHT22;1893;52.526;13.360;2023-02-13T13:25:11;7.80;99.90
3756;DHT22;1893;52.526;13.360;2023-02-13T13:27:48;7.80;99.90
3756;DHT22;1893;52.526;13.360;2023-02-13T13:30:28;7.80;99.90
3756;DHT22;1893;52.526;13.360;2023-02-13T13:33:02;7.70;99.90
3756;DHT22;1893;52.526;13.360;2023-02-13T13:35:29;7.80;99.90
3756;DHT22;1893;52.526;13.360;2023-02-13T13:41:08;7.70;99.90
3756;DHT22;1893;52.526;13.360;2023-02-13T13:46:08;7.80;99.90
3756;DHT22;1893;52.526;13.360;2023-02-13T13:48:55;7.80;99.90
3756;DHT22;1893;52.526;13.360;2023-02-13T13:51:25;7.70;99.90
3756;DHT22;1893;52.526;13.360;2023-02-13T13:56:44;7.70;99.90
3756;DHT22;1893;52.526;13.360;2023-02-13T13:59:53;7.70;99.90
3756;DHT22;1893;52.526;13.360;2023-02-13T14:07:34;7.60;99.90
3756;DHT22;1893;52.526;13.360;2023-02-13T14:10:00;7.60;99.90
3756;DHT22;1893;52.526;13.360;2023-02-13T14:14:58;7.60;99.90
3756;DHT22;1893;52.526;13.360;2023-02-13T14:20:33;7.60;99.90
3756;DHT22;1893;52.526;13.360;2023-02-13T14:26:34;7.60;99.90
3756;DHT22;1893;52.526;13.360;2023-02-13T14:31:36;7.60;99.90
3756;DHT22;1893;52.526;13.360;2023-02-13T14:36:46;7.60;99.90
3756;DHT22;1893;52.526;13.360;2023-02-13T14:39:24;7.60;99.90
3756;DHT22;1893;52.526;13.360;2023-02-13T14:44:46;7.70;99.90
3756;DHT22;1893;52.526;13.360;2023-02-13T14:47:21;7.60;99.90
3756;DHT22;1893;52.526;13.360;2023-02-13T14:49:48;7.50;99.90
3756;DHT22;1893;52.526;13.360;2023-02-13T14:52:18;7.50;99.90
3756;DHT22;1893;52.526;13.360;2023-02-13T14:55:03;7.40;99.90
3756;DHT22;1893;52.526;13.360;2023-02-13T14:57:57;7.40;99.90
3756;DHT22;1893;52.526;13.360;2023-02-13T15:00:52;7.40;99.90
3756;DHT22;1893;52.526;13.360;2023-02-13T15:03:45;7.40;99.90
3756;DHT22;1893;52.526;13.360;2023-02-13T15:06:34;7.50;99.90
3756;DHT22;1893;52.526;13.360;2023-02-13T15:09:05;7.30;99.90
3756;DHT22;1893;52.526;13.360;2023-02-13T15:11:39;7.40;99.90
3756;DHT22;1893;52.526;13.360;2023-02-13T15:19:25;7.30;99.90
3756;DHT22;1893;52.526;13.360;2023-02-13T15:22:02;7.20;99.90
3756;DHT22;1893;52.526;13.360;2023-02-13T15:24:53;7.20;99.90
3756;DHT22;1893;52.526;13.360;2023-02-13T15:27:26;7.20;99.90
3756;DHT22;1893;52.526;13.360;2023-02-13T15:30:00;7.20;99.90
3756;DHT22;1893;52.526;13.360;2023-02-13T15:32:35;7.20;99.90
3756;DHT22;1893;52.526;13.360;2023-02-13T15:35:16;7.30;99.90
3756;DHT22;1893;52.526;13.360;2023-02-13T15:37:45;7.20;99.90
3756;DHT22;1893;52.526;13.360;2023-02-13T15:40:26;7.20;99.90
3756;DHT22;1893;52.526;13.360;2023-02-13T15:42:53;7.20;99.90
3756;DHT22;1893;52.526;13.360;2023-02-13T15:45:21;7.30;99.90
3756;DHT22;1893;52.526;13.360;2023-02-13T15:47:47;7.20;99.90
3756;DHT22;1893;52.526;13.360;2023-02-13T15:50:24;7.20;99.90
3756;DHT22;1893;52.526;13.360;2023-02-13T15:52:52;7.20;99.90
3756;DHT22;1893;52.526;13.360;2023-02-13T15:55:26;7.20;99.90
3756;DHT22;1893;52.526;13.360;2023-02-13T15:57:57;7.20;99.90
3756;DHT22;1893;52.526;13.360;2023-02-13T16:00:34;7.20;99.90
3756;DHT22;1893;52.526;13.360;2023-02-13T16:03:03;7.20;99.90
3756;DHT22;1893;52.526;13.360;2023-02-13T16:05:36;7.10;99.90
3756;DHT22;1893;52.526;13.360;2023-02-13T16:08:02;7.20;99.90
3756;DHT22;1893;52.526;13.360;2023-02-13T16:10:46;7.20;99.90
3756;DHT22;1893;52.526;13.360;2023-02-13T16:13:17;7.20;99.90
3756;DHT22;1893;52.526;13.360;2023-02-13T16:15:43;7.20;99.90
3756;DHT22;1893;52.526;13.360;2023-02-13T16:18:19;7.10;99.90
3756;DHT22;1893;52.526;13.360;2023-02-13T16:20:45;7.10;99.90
3756;DHT22;1893;52.526;13.360;2023-02-13T16:23:16;7.10;99.90
3756;DHT22;1893;52.526;13.360;2023-02-13T16:25:45;7.10;99.90
3756;DHT22;1893;52.526;13.360;2023-02-13T16:28:21;7.10;99.90
3756;DHT22;1893;52.526;13.360;2023-02-13T16:33:29;7.00;99.90
3756;DHT22;1893;52.526;13.360;2023-02-13T16:38:47;7.10;99.90
3756;DHT22;1893;52.526;13.360;2023-02-13T16:56:24;7.00;99.90
3756;DHT22;1893;52.526;13.360;2023-02-13T16:58:49;7.00;99.90
3756;DHT22;1893;52.526;13.360;2023-02-13T17:01:15;7.00;99.90
3756;DHT22;1893;52.526;13.360;2023-02-13T17:03:42;7.00;99.90
3756;DHT22;1893;52.526;13.360;2023-02-13T17:06:09;7.00;99.90
3756;DHT22;1893;52.526;13.360;2023-02-13T17:08:35;7.10;99.90
3756;DHT22;1893;52.526;13.360;2023-02-13T17:11:03;7.00;99.90
3756;DHT22;1893;52.526;13.360;2023-02-13T17:13:30;7.00;99.90
3756;DHT22;1893;52.526;13.360;2023-02-13T17:15:55;7.00;99.90
3756;DHT22;1893;52.526;13.360;2023-02-13T17:18:22;7.00;99.90
3756;DHT22;1893;52.526;13.360;2023-02-13T17:20:48;7.10;99.90
3756;DHT22;1893;52.526;13.360;2023-02-13T17:23:22;7.00;99.90
3756;DHT22;1893;52.526;13.360;2023-02-13T17:25:49;7.00;99.90
3756;DHT22;1893;52.526;13.360;2023-02-13T17:28:21;7.00;99.90
3756;DHT22;1893;52.526;13.360;2023-02-13T17:30:50;7.00;99.90
3756;DHT22;1893;52.526;13.360;2023-02-13T17:35:45;7.00;99.90
3756;DHT22;1893;52.526;13.360;2023-02-13T17:38:10;7.00;99.90
3756;DHT22;1893;52.526;13.360;2023-02-13T17:40:36;7.00;99.90
3756;DHT22;1893;52.526;13.360;2023-02-13T17:43:03;7.00;99.90
3756;DHT22;1893;52.526;13.360;2023-02-13T17:45:31;6.90;99.90
3756;DHT22;1893;52.526;13.360;2023-02-13T17:47:57;6.90;99.90
3756;DHT22;1893;52.526;13.360;2023-02-13T17:50:24;6.90;99.90
3756;DHT22;1893;52.526;13.360;2023-02-13T17:52:50;6.90;99.90
3756;DHT22;1893;52.526;13.360;2023-02-13T17:55:20;6.90;99.90
3756;DHT22;1893;52.526;13.360;2023-02-13T17:57:50;6.90;99.90
3756;DHT22;1893;52.526;13.360;2023-02-13T18:00:17;6.90;99.90
3756;DHT22;1893;52.526;13.360;2023-02-13T18:02:44;6.90;99.90
3756;DHT22;1893;52.526;13.360;2023-02-13T18:05:13;6.90;99.90
3756;DHT22;1893;52.526;13.360;2023-02-13T18:07:39;6.90;99.90
3756;DHT22;1893;52.526;13.360;2023-02-13T18:10:29;6.90;99.90
3756;DHT22;1893;52.526;13.360;2023-02-13T18:12:55;6.80;99.90
3756;DHT22;1893;52.526;13.360;2023-02-13T18:15:21;6.80;99.90
3756;DHT22;1893;52.526;13.360;2023-02-13T18:17:47;6.80;99.90
3756;DHT22;1893;52.526;13.360;2023-02-13T18:20:15;6.80;99.90
3756;DHT22;1893;52.526;13.360;2023-02-13T18:22:41;6.80;99.90
3756;DHT22;1893;52.526;13.360;2023-02-13T18:25:07;6.80;99.90
3756;DHT22;1893;52.526;13.360;2023-02-13T18:27:33;7.00;99.90
3756;DHT22;1893;52.526;13.360;2023-02-13T18:29:58;6.80;99.90
3756;DHT22;1893;52.526;13.360;2023-02-13T18:32:24;6.80;99.90
3756;DHT22;1893;52.526;13.360;2023-02-13T18:34:50;6.90;99.90
3756;DHT22;1893;52.526;13.360;2023-02-13T18:37:16;6.90;99.90
3756;DHT22;1893;52.526;13.360;2023-02-13T18:39:42;6.80;99.90
3756;DHT22;1893;52.526;13.360;2023-02-13T18:42:09;6.80;99.90
3756;DHT22;1893;52.526;13.360;2023-02-13T18:44:36;6.70;99.90
3756;DHT22;1893;52.526;13.360;2023-02-13T18:47:01;6.70;99.90
3756;DHT22;1893;52.526;13.360;2023-02-13T18:49:27;6.70;99.90
3756;DHT22;1893;52.526;13.360;2023-02-13T18:51:53;6.70;99.90
3756;DHT22;1893;52.526;13.360;2023-02-13T18:54:18;6.70;99.90
3756;DHT22;1893;52.526;13.360;2023-02-13T18:56:45;6.70;99.90
3756;DHT22;1893;52.526;13.360;2023-02-13T18:59:12;6.70;99.90
3756;DHT22;1893;52.526;13.360;2023-02-13T19:01:37;6.70;99.90
3756;DHT22;1893;52.526;13.360;2023-02-13T19:04:04;6.70;99.90
3756;DHT22;1893;52.526;13.360;2023-02-13T19:06:30;6.80;99.90
3756;DHT22;1893;52.526;13.360;2023-02-13T19:08:56;6.70;99.90
3756;DHT22;1893;52.526;13.360;2023-02-13T19:11:23;6.70;99.90
3756;DHT22;1893;52.526;13.360;2023-02-13T19:13:56;6.70;99.90
3756;DHT22;1893;52.526;13.360;2023-02-13T19:16:26;6.70;99.90
3756;DHT22;1893;52.526;13.360;2023-02-13T19:18:55;6.70;99.90
3756;DHT22;1893;52.526;13.360;2023-02-13T19:21:22;6.70;99.90
3756;DHT22;1893;52.526;13.360;2023-02-13T19:23:49;6.70;99.90
3756;DHT22;1893;52.526;13.360;2023-02-13T19:26:18;6.80;99.90
3756;DHT22;1893;52.526;13.360;2023-02-13T19:28:44;6.70;99.90
3756;DHT22;1893;52.526;13.360;2023-02-13T19:31:21;6.70;99.90
3756;DHT22;1893;52.526;13.360;2023-02-13T19:33:47;6.70;99.90